Loodiep — A8ZO7 — position and weather

sailwx.info

Track history (hours):
 
Tides and Currents Weather Stations Pressure Air Temp Water Temp Dewpoint Dewpoint Depression Visibility Wind Speed Wind Dir Waves Ship Positions

Loodiep

Last reported at 2017-Feb-21 15:12 UTC. Time now 2017-Feb-24 06:09 UTC.
Position N 60°02' E 029°18'.

Length 108 m; draft 4.2 m.

Type: Cargo ship. MMSI: 636015263.

Date/timePositionNaut miles runAvg speedWind from/ knotsBaromVisibWave heightAir tempDewpointWater temp
2017-Feb-21 15:12N 60°02' E 029°18'3 0.1
2017-Feb-19 15:28N 60°01' E 029°12'8 8.3
2017-Feb-19 14:33N 59°59' E 028°57'8 8.3
2017-Feb-19 13:33N 59°56' E 028°43'6 5.8
2017-Feb-19 12:33N 59°59' E 028°34'0 0.4
2017-Feb-19 11:33N 59°59' E 028°33'0 0.2
2017-Feb-19 10:33N 59°59' E 028°33'1 1.1
2017-Feb-19 09:33N 59°60' E 028°31'0 0.2
2017-Feb-19 08:33N 59°60' E 028°31'1 1.4
2017-Feb-19 07:33N 60°01' E 028°30'4 3.6
2017-Feb-19 06:33N 60°03' E 028°25'0 0.0
2017-Feb-19 05:33N 60°03' E 028°25'0 0.2
2017-Feb-19 04:33N 60°03' E 028°25'5 4.9
2017-Feb-19 03:33N 60°06' E 028°17'6 5.9
2017-Feb-19 02:33N 60°09' E 028°06'9 9.2
2017-Feb-19 01:33N 60°11' E 027°48'9 9.3
2017-Feb-19 00:33N 60°06' E 027°31'9 9.3
2017-Feb-18 23:33N 60°01' E 027°16'28 9.0
2017-Feb-18 20:24N 59°57' E 026°20'427 8.9
2017-Feb-16 20:29N 55°41' E 015°37'10 9.4
2017-Feb-16 19:23N 55°36' E 015°21'8 9.1
2017-Feb-16 18:31N 55°32' E 015°09'9 9.4
2017-Feb-16 17:34N 55°28' E 014°55'10 9.6
2017-Feb-16 16:33N 55°23' E 014°40'10 9.6
2017-Feb-16 15:33N 55°16' E 014°30'9 9.0
2017-Feb-16 14:33N 55°11' E 014°17'10 9.8
2017-Feb-16 13:33N 55°10' E 013°59'9 9.3
2017-Feb-16 12:33N 55°11' E 013°43'10 9.5
2017-Feb-16 11:30N 55°12' E 013°26'9 9.5
2017-Feb-16 10:31N 55°14' E 013°10'9 9.5
2017-Feb-16 09:33N 55°15' E 012°54'9 9.3
2017-Feb-16 08:33N 55°18' E 012°38'8 8.1
2017-Feb-16 07:33N 55°26' E 012°40'9 9.0
2017-Feb-16 06:33N 55°35' E 012°42'9 9.4
2017-Feb-16 05:33N 55°44' E 012°41'9 9.0
2017-Feb-16 04:33N 55°53' E 012°39'9 8.9
2017-Feb-16 03:33N 56°02' E 012°38'9 9.2
2017-Feb-16 02:33N 56°09' E 012°27'9 9.3
2017-Feb-16 01:33N 56°14' E 012°13'8 8.4
2017-Feb-16 00:33N 56°20' E 012°02'11 9.3
2017-Feb-15 23:24N 56°30' E 011°58'8 9.6
2017-Feb-15 22:33N 56°38' E 011°56'9 9.2
2017-Feb-15 21:33N 56°46' E 011°47'11 9.7
2017-Feb-15 20:28N 56°48' E 011°28'19 9.4
2017-Feb-15 18:26N 56°50' E 010°54'8 9.0
2017-Feb-15 17:31N 56°51' E 010°38'12 8.8
2017-Feb-15 16:08N 56°58' E 010°20'6 9.8
2017-Feb-15 15:33N 56°60' E 010°11'8 7.6
2017-Feb-15 14:32N 57°04' E 009°58'0 0.0
2017-Feb-15 13:32N 57°04' E 009°58'0 0.0
2017-Feb-15 12:32N 57°04' E 009°58'0 0.0
2017-Feb-15 11:32N 57°04' E 009°58'0 0.0
2017-Feb-15 10:32N 57°04' E 009°58'0 0.0
2017-Feb-15 09:32N 57°04' E 009°58'0 0.0
2017-Feb-15 08:32N 57°04' E 009°58'0 0.0
2017-Feb-15 07:32N 57°04' E 009°58'0 0.0
2017-Feb-15 06:32N 57°04' E 009°58'0 0.0
2017-Feb-15 05:32N 57°04' E 009°58'0 0.0
2017-Feb-15 04:32N 57°04' E 009°58'0 0.0
2017-Feb-15 03:32N 57°04' E 009°58'0 0.0
2017-Feb-15 02:32N 57°04' E 009°58'0 0.0
2017-Feb-15 01:32N 57°04' E 009°58'0 0.0
2017-Feb-15 00:32N 57°04' E 009°58'0 0.0
2017-Feb-14 23:32N 57°04' E 009°58'0 0.0
2017-Feb-14 22:32N 57°04' E 009°58'0 0.0
2017-Feb-14 21:32N 57°04' E 009°58'0 0.0
2017-Feb-14 20:32N 57°04' E 009°58'0 0.0
2017-Feb-14 19:32N 57°04' E 009°58'0 0.0
2017-Feb-14 18:32N 57°04' E 009°58'0 0.0
2017-Feb-14 17:29N 57°04' E 009°58'0 0.0
2017-Feb-14 16:32N 57°04' E 009°58'0 0.0
2017-Feb-14 15:32N 57°04' E 009°58'0 0.0
2017-Feb-14 14:32N 57°04' E 009°58'0 0.0
2017-Feb-14 13:32N 57°04' E 009°58'0 0.0
2017-Feb-14 12:32N 57°04' E 009°58'0 0.0
2017-Feb-14 11:32N 57°04' E 009°58'0 0.0
2017-Feb-14 10:32N 57°04' E 009°58'0 0.0
2017-Feb-14 09:32N 57°04' E 009°58'0 0.0
2017-Feb-14 08:32N 57°04' E 009°58'0 0.0
2017-Feb-14 07:32N 57°04' E 009°58'0 0.0
2017-Feb-14 06:32N 57°04' E 009°58'0 0.0
2017-Feb-14 05:32N 57°04' E 009°58'0 0.0
2017-Feb-14 04:32N 57°04' E 009°58'0 0.0
2017-Feb-14 03:32N 57°04' E 009°58'0 0.0
2017-Feb-14 02:32N 57°04' E 009°58'0 0.0
2017-Feb-14 01:32N 57°04' E 009°58'0 0.0
2017-Feb-14 00:32N 57°04' E 009°58'0 0.0
2017-Feb-13 23:32N 57°04' E 009°58'0 0.0
2017-Feb-13 22:32N 57°04' E 009°58'0 0.0
2017-Feb-13 21:32N 57°04' E 009°58'0 0.0
2017-Feb-13 20:32N 57°04' E 009°58'0 0.2
2017-Feb-13 19:33N 57°04' E 009°59'5 5.5
2017-Feb-13 18:33N 57°02' E 010°08'9 9.3
2017-Feb-13 17:33N 56°58' E 010°23'4 2.7
2017-Feb-13 16:11N 56°56' E 010°29'0 0.0
2017-Feb-13 15:26N 56°56' E 010°29'0 0.0
2017-Feb-13 09:08N 56°56' E 010°29'0 0.1
2017-Feb-13 08:26N 56°56' E 010°29'8 0.4
2017-Feb-12 12:19N 56°51' E 010°41'28 7.0
2017-Feb-12 08:15N 57°19' E 010°42'6 8.1
2017-Feb-12 07:33N 57°25' E 010°43'8 8.4
2017-Feb-12 06:33N 57°33' E 010°44'9 8.3
2017-Feb-12 05:31N 57°42' E 010°45'6 5.7
2017-Feb-12 04:33N 57°47' E 010°40'6 6.3
2017-Feb-12 03:33N 57°47' E 010°28'23 6.5
2017-Feb-12 00:04N 57°45' E 009°46'4 7.2
2017-Feb-11 23:33N 57°43' E 009°40'8 7.4
2017-Feb-11 22:32N 57°39' E 009°28'  
Track history (hours):
 
Tides and Currents Weather Stations Pressure Air Temp Water Temp Dewpoint Dewpoint Depression Visibility Wind Speed Wind Dir Waves Ship Positions

Loodiep

Last reported at 2017-Feb-21 15:12 UTC. Time now 2017-Feb-24 06:09 UTC.
Position N 60°02' E 029°18'.

Length 108 m; draft 4.2 m.

Type: Cargo ship. MMSI: 636015263.

Date/timePositionNaut miles runAvg speedWind from/ knotsBaromVisibWave heightAir tempDewpointWater temp
2017-Feb-21 15:12N 60°02' E 029°18'3 0.1
2017-Feb-19 15:28N 60°01' E 029°12'8 8.3
2017-Feb-19 14:33N 59°59' E 028°57'8 8.3
2017-Feb-19 13:33N 59°56' E 028°43'6 5.8
2017-Feb-19 12:33N 59°59' E 028°34'0 0.4
2017-Feb-19 11:33N 59°59' E 028°33'0 0.2
2017-Feb-19 10:33N 59°59' E 028°33'1 1.1
2017-Feb-19 09:33N 59°60' E 028°31'0 0.2
2017-Feb-19 08:33N 59°60' E 028°31'1 1.4
2017-Feb-19 07:33N 60°01' E 028°30'4 3.6
2017-Feb-19 06:33N 60°03' E 028°25'0 0.0
2017-Feb-19 05:33N 60°03' E 028°25'0 0.2
2017-Feb-19 04:33N 60°03' E 028°25'5 4.9
2017-Feb-19 03:33N 60°06' E 028°17'6 5.9
2017-Feb-19 02:33N 60°09' E 028°06'9 9.2
2017-Feb-19 01:33N 60°11' E 027°48'9 9.3
2017-Feb-19 00:33N 60°06' E 027°31'9 9.3
2017-Feb-18 23:33N 60°01' E 027°16'28 9.0
2017-Feb-18 20:24N 59°57' E 026°20'427 8.9
2017-Feb-16 20:29N 55°41' E 015°37'10 9.4
2017-Feb-16 19:23N 55°36' E 015°21'8 9.1
2017-Feb-16 18:31N 55°32' E 015°09'9 9.4
2017-Feb-16 17:34N 55°28' E 014°55'10 9.6
2017-Feb-16 16:33N 55°23' E 014°40'10 9.6
2017-Feb-16 15:33N 55°16' E 014°30'9 9.0
2017-Feb-16 14:33N 55°11' E 014°17'10 9.8
2017-Feb-16 13:33N 55°10' E 013°59'9 9.3
2017-Feb-16 12:33N 55°11' E 013°43'10 9.5
2017-Feb-16 11:30N 55°12' E 013°26'9 9.5
2017-Feb-16 10:31N 55°14' E 013°10'9 9.5
2017-Feb-16 09:33N 55°15' E 012°54'9 9.3
2017-Feb-16 08:33N 55°18' E 012°38'8 8.1
2017-Feb-16 07:33N 55°26' E 012°40'9 9.0
2017-Feb-16 06:33N 55°35' E 012°42'9 9.4
2017-Feb-16 05:33N 55°44' E 012°41'9 9.0
2017-Feb-16 04:33N 55°53' E 012°39'9 8.9
2017-Feb-16 03:33N 56°02' E 012°38'9 9.2
2017-Feb-16 02:33N 56°09' E 012°27'9 9.3
2017-Feb-16 01:33N 56°14' E 012°13'8 8.4
2017-Feb-16 00:33N 56°20' E 012°02'11 9.3
2017-Feb-15 23:24N 56°30' E 011°58'8 9.6
2017-Feb-15 22:33N 56°38' E 011°56'9 9.2
2017-Feb-15 21:33N 56°46' E 011°47'11 9.7
2017-Feb-15 20:28N 56°48' E 011°28'19 9.4
2017-Feb-15 18:26N 56°50' E 010°54'8 9.0
2017-Feb-15 17:31N 56°51' E 010°38'12 8.8
2017-Feb-15 16:08N 56°58' E 010°20'6 9.8
2017-Feb-15 15:33N 56°60' E 010°11'8 7.6
2017-Feb-15 14:32N 57°04' E 009°58'0 0.0
2017-Feb-15 13:32N 57°04' E 009°58'0 0.0
2017-Feb-15 12:32N 57°04' E 009°58'0 0.0
2017-Feb-15 11:32N 57°04' E 009°58'0 0.0
2017-Feb-15 10:32N 57°04' E 009°58'0 0.0
2017-Feb-15 09:32N 57°04' E 009°58'0 0.0
2017-Feb-15 08:32N 57°04' E 009°58'0 0.0
2017-Feb-15 07:32N 57°04' E 009°58'0 0.0
2017-Feb-15 06:32N 57°04' E 009°58'0 0.0
2017-Feb-15 05:32N 57°04' E 009°58'0 0.0
2017-Feb-15 04:32N 57°04' E 009°58'0 0.0
2017-Feb-15 03:32N 57°04' E 009°58'0 0.0
2017-Feb-15 02:32N 57°04' E 009°58'0 0.0
2017-Feb-15 01:32N 57°04' E 009°58'0 0.0
2017-Feb-15 00:32N 57°04' E 009°58'0 0.0
2017-Feb-14 23:32N 57°04' E 009°58'0 0.0
2017-Feb-14 22:32N 57°04' E 009°58'0 0.0
2017-Feb-14 21:32N 57°04' E 009°58'0 0.0
2017-Feb-14 20:32N 57°04' E 009°58'0 0.0
2017-Feb-14 19:32N 57°04' E 009°58'0 0.0
2017-Feb-14 18:32N 57°04' E 009°58'0 0.0
2017-Feb-14 17:29N 57°04' E 009°58'0 0.0
2017-Feb-14 16:32N 57°04' E 009°58'0 0.0
2017-Feb-14 15:32N 57°04' E 009°58'0 0.0
2017-Feb-14 14:32N 57°04' E 009°58'0 0.0
2017-Feb-14 13:32N 57°04' E 009°58'0 0.0
2017-Feb-14 12:32N 57°04' E 009°58'0 0.0
2017-Feb-14 11:32N 57°04' E 009°58'0 0.0
2017-Feb-14 10:32N 57°04' E 009°58'0 0.0
2017-Feb-14 09:32N 57°04' E 009°58'0 0.0
2017-Feb-14 08:32N 57°04' E 009°58'0 0.0
2017-Feb-14 07:32N 57°04' E 009°58'0 0.0
2017-Feb-14 06:32N 57°04' E 009°58'0 0.0
2017-Feb-14 05:32N 57°04' E 009°58'0 0.0
2017-Feb-14 04:32N 57°04' E 009°58'0 0.0
2017-Feb-14 03:32N 57°04' E 009°58'0 0.0
2017-Feb-14 02:32N 57°04' E 009°58'0 0.0
2017-Feb-14 01:32N 57°04' E 009°58'0 0.0
2017-Feb-14 00:32N 57°04' E 009°58'0 0.0
2017-Feb-13 23:32N 57°04' E 009°58'0 0.0
2017-Feb-13 22:32N 57°04' E 009°58'0 0.0
2017-Feb-13 21:32N 57°04' E 009°58'0 0.0
2017-Feb-13 20:32N 57°04' E 009°58'0 0.2
2017-Feb-13 19:33N 57°04' E 009°59'5 5.5
2017-Feb-13 18:33N 57°02' E 010°08'9 9.3
2017-Feb-13 17:33N 56°58' E 010°23'4 2.7
2017-Feb-13 16:11N 56°56' E 010°29'0 0.0
2017-Feb-13 15:26N 56°56' E 010°29'0 0.0
2017-Feb-13 09:08N 56°56' E 010°29'0 0.1
2017-Feb-13 08:26N 56°56' E 010°29'8 0.4
2017-Feb-12 12:19N 56°51' E 010°41'28 7.0
2017-Feb-12 08:15N 57°19' E 010°42'6 8.1
2017-Feb-12 07:33N 57°25' E 010°43'8 8.4
2017-Feb-12 06:33N 57°33' E 010°44'9 8.3
2017-Feb-12 05:31N 57°42' E 010°45'6 5.7
2017-Feb-12 04:33N 57°47' E 010°40'6 6.3
2017-Feb-12 03:33N 57°47' E 010°28'23 6.5
2017-Feb-12 00:04N 57°45' E 009°46'4 7.2
2017-Feb-11 23:33N 57°43' E 009°40'8 7.4
2017-Feb-11 22:32N 57°39' E 009°28'  

Dump ship's entire track history